sensor_id;sensor_type;location;lat;lon;timestamp;temperature;humidity
11091;DHT22;5599;52.210;21.046;2022-10-31T00:00:18;11.20;99.90
11091;DHT22;5599;52.210;21.046;2022-10-31T00:02:49;11.20;99.90
11091;DHT22;5599;52.210;21.046;2022-10-31T00:05:19;11.20;99.90
11091;DHT22;5599;52.210;21.046;2022-10-31T00:07:51;11.20;99.90
11091;DHT22;5599;52.210;21.046;2022-10-31T00:10:21;11.20;99.90
11091;DHT22;5599;52.210;21.046;2022-10-31T00:12:51;11.10;99.90
11091;DHT22;5599;52.210;21.046;2022-10-31T00:15:20;11.20;99.90
11091;DHT22;5599;52.210;21.046;2022-10-31T00:17:51;11.10;99.90
11091;DHT22;5599;52.210;21.046;2022-10-31T00:20:21;11.10;99.90
11091;DHT22;5599;52.210;21.046;2022-10-31T00:22:50;11.10;99.90
11091;DHT22;5599;52.210;21.046;2022-10-31T00:25:19;11.10;99.90
11091;DHT22;5599;52.210;21.046;2022-10-31T00:27:49;11.10;99.90
11091;DHT22;5599;52.210;21.046;2022-10-31T00:30:19;11.10;99.90
11091;DHT22;5599;52.210;21.046;2022-10-31T00:32:48;11.10;99.90
11091;DHT22;5599;52.210;21.046;2022-10-31T00:35:19;11.10;99.90
11091;DHT22;5599;52.210;21.046;2022-10-31T00:37:49;11.00;99.90
11091;DHT22;5599;52.210;21.046;2022-10-31T00:40:18;11.00;99.90
11091;DHT22;5599;52.210;21.046;2022-10-31T00:42:48;11.00;99.90
11091;DHT22;5599;52.210;21.046;2022-10-31T00:45:17;11.00;99.90
11091;DHT22;5599;52.210;21.046;2022-10-31T00:47:47;10.90;99.90
11091;DHT22;5599;52.210;21.046;2022-10-31T00:50:17;10.90;99.90
11091;DHT22;5599;52.210;21.046;2022-10-31T00:52:47;10.90;99.90
11091;DHT22;5599;52.210;21.046;2022-10-31T00:55:16;10.80;99.90
11091;DHT22;5599;52.210;21.046;2022-10-31T00:57:46;10.80;99.90
11091;DHT22;5599;52.210;21.046;2022-10-31T01:00:16;10.80;99.90
11091;DHT22;5599;52.210;21.046;2022-10-31T01:02:46;10.80;99.90
11091;DHT22;5599;52.210;21.046;2022-10-31T01:05:15;10.80;99.90
11091;DHT22;5599;52.210;21.046;2022-10-31T01:07:47;10.70;99.90
11091;DHT22;5599;52.210;21.046;2022-10-31T01:10:16;10.80;99.90
11091;DHT22;5599;52.210;21.046;2022-10-31T01:12:47;10.70;99.90
11091;DHT22;5599;52.210;21.046;2022-10-31T01:15:19;10.70;99.90
11091;DHT22;5599;52.210;21.046;2022-10-31T01:17:48;10.70;99.90
11091;DHT22;5599;52.210;21.046;2022-10-31T01:20:18;10.60;99.90
11091;DHT22;5599;52.210;21.046;2022-10-31T01:22:49;10.50;99.90
11091;DHT22;5599;52.210;21.046;2022-10-31T01:25:18;10.50;99.90
11091;DHT22;5599;52.210;21.046;2022-10-31T01:27:48;10.40;99.90
11091;DHT22;5599;52.210;21.046;2022-10-31T01:30:17;10.50;99.90
11091;DHT22;5599;52.210;21.046;2022-10-31T01:32:47;10.40;99.90
11091;DHT22;5599;52.210;21.046;2022-10-31T01:35:16;10.40;99.90
11091;DHT22;5599;52.210;21.046;2022-10-31T01:37:45;10.40;99.90
11091;DHT22;5599;52.210;21.046;2022-10-31T01:40:16;10.40;99.90
11091;DHT22;5599;52.210;21.046;2022-10-31T01:42:45;10.30;99.90
11091;DHT22;5599;52.210;21.046;2022-10-31T01:45:14;10.30;99.90
11091;DHT22;5599;52.210;21.046;2022-10-31T01:47:46;10.30;99.90
11091;DHT22;5599;52.210;21.046;2022-10-31T01:50:28;10.30;99.90
11091;DHT22;5599;52.210;21.046;2022-10-31T01:52:59;10.20;99.90
11091;DHT22;5599;52.210;21.046;2022-10-31T01:55:33;10.30;99.90
11091;DHT22;5599;52.210;21.046;2022-10-31T01:58:07;10.20;99.90
11091;DHT22;5599;52.210;21.046;2022-10-31T02:00:38;10.20;99.90
11091;DHT22;5599;52.210;21.046;2022-10-31T02:03:08;10.20;99.90
11091;DHT22;5599;52.210;21.046;2022-10-31T02:05:38;10.10;99.90
11091;DHT22;5599;52.210;21.046;2022-10-31T02:08:09;10.20;99.90
11091;DHT22;5599;52.210;21.046;2022-10-31T02:10:43;10.10;99.90
11091;DHT22;5599;52.210;21.046;2022-10-31T02:13:13;10.00;99.90
11091;DHT22;5599;52.210;21.046;2022-10-31T02:15:49;10.00;99.90
11091;DHT22;5599;52.210;21.046;2022-10-31T02:18:18;10.00;99.90
11091;DHT22;5599;52.210;21.046;2022-10-31T02:21:00;10.10;99.90
11091;DHT22;5599;52.210;21.046;2022-10-31T02:27:03;10.00;99.90
11091;DHT22;5599;52.210;21.046;2022-10-31T02:30:03;10.00;99.90
11091;DHT22;5599;52.210;21.046;2022-10-31T02:32:54;9.90;99.90
11091;DHT22;5599;52.210;21.046;2022-10-31T02:35:39;9.90;99.90
11091;DHT22;5599;52.210;21.046;2022-10-31T02:38:21;9.90;99.90
11091;DHT22;5599;52.210;21.046;2022-10-31T02:41:00;9.80;99.90
11091;DHT22;5599;52.210;21.046;2022-10-31T02:43:43;9.90;99.90
11091;DHT22;5599;52.210;21.046;2022-10-31T02:46:17;9.80;99.90
11091;DHT22;5599;52.210;21.046;2022-10-31T02:48:53;9.80;99.90
11091;DHT22;5599;52.210;21.046;2022-10-31T02:51:24;9.80;99.90
11091;DHT22;5599;52.210;21.046;2022-10-31T02:53:54;9.80;99.90
11091;DHT22;5599;52.210;21.046;2022-10-31T02:56:23;9.70;99.90
11091;DHT22;5599;52.210;21.046;2022-10-31T02:58:54;9.70;99.90
11091;DHT22;5599;52.210;21.046;2022-10-31T03:01:53;9.60;99.90
11091;DHT22;5599;52.210;21.046;2022-10-31T03:04:38;9.60;99.90
11091;DHT22;5599;52.210;21.046;2022-10-31T03:07:20;9.50;99.90
11091;DHT22;5599;52.210;21.046;2022-10-31T03:09:58;9.50;99.90
11091;DHT22;5599;52.210;21.046;2022-10-31T03:12:33;9.50;99.90
11091;DHT22;5599;52.210;21.046;2022-10-31T03:15:16;9.60;99.90
11091;DHT22;5599;52.210;21.046;2022-10-31T03:17:53;9.60;99.90
11091;DHT22;5599;52.210;21.046;2022-10-31T03:20:28;9.50;99.90
11091;DHT22;5599;52.210;21.046;2022-10-31T03:23:00;9.60;99.90
11091;DHT22;5599;52.210;21.046;2022-10-31T03:25:31;9.60;99.90
11091;DHT22;5599;52.210;21.046;2022-10-31T03:28:01;9.70;99.90
11091;DHT22;5599;52.210;21.046;2022-10-31T03:30:33;9.60;99.90
11091;DHT22;5599;52.210;21.046;2022-10-31T03:33:07;9.60;99.90
11091;DHT22;5599;52.210;21.046;2022-10-31T03:35:42;9.40;99.90
11091;DHT22;5599;52.210;21.046;2022-10-31T03:38:13;9.40;99.90
11091;DHT22;5599;52.210;21.046;2022-10-31T03:40:46;9.40;99.90
11091;DHT22;5599;52.210;21.046;2022-10-31T03:43:19;9.40;99.90
11091;DHT22;5599;52.210;21.046;2022-10-31T03:45:51;9.40;99.90
11091;DHT22;5599;52.210;21.046;2022-10-31T03:48:20;9.30;99.90
11091;DHT22;5599;52.210;21.046;2022-10-31T03:51:00;9.40;99.90
11091;DHT22;5599;52.210;21.046;2022-10-31T03:53:36;9.30;99.90
11091;DHT22;5599;52.210;21.046;2022-10-31T03:56:11;9.30;99.90
11091;DHT22;5599;52.210;21.046;2022-10-31T03:58:45;9.20;99.90
11091;DHT22;5599;52.210;21.046;2022-10-31T04:01:18;9.30;99.90
11091;DHT22;5599;52.210;21.046;2022-10-31T04:03:50;9.30;99.90
11091;DHT22;5599;52.210;21.046;2022-10-31T04:06:22;9.30;99.90
11091;DHT22;5599;52.210;21.046;2022-10-31T04:08:56;9.20;99.90
11091;DHT22;5599;52.210;21.046;2022-10-31T04:11:28;9.10;99.90
11091;DHT22;5599;52.210;21.046;2022-10-31T04:14:25;9.10;99.90
11091;DHT22;5599;52.210;21.046;2022-10-31T04:16:56;9.00;99.90
11091;DHT22;5599;52.210;21.046;2022-10-31T04:19:34;9.00;99.90
11091;DHT22;5599;52.210;21.046;2022-10-31T04:22:04;9.00;99.90
11091;DHT22;5599;52.210;21.046;2022-10-31T04:24:34;9.00;99.90
11091;DHT22;5599;52.210;21.046;2022-10-31T04:27:03;9.00;99.90
11091;DHT22;5599;52.210;21.046;2022-10-31T04:29:32;9.00;99.90
11091;DHT22;5599;52.210;21.046;2022-10-31T04:32:01;8.90;99.90
11091;DHT22;5599;52.210;21.046;2022-10-31T04:34:30;8.90;99.90
11091;DHT22;5599;52.210;21.046;2022-10-31T04:37:00;8.90;99.90
11091;DHT22;5599;52.210;21.046;2022-10-31T04:39:30;8.90;99.90
11091;DHT22;5599;52.210;21.046;2022-10-31T04:42:20;8.90;99.90
11091;DHT22;5599;52.210;21.046;2022-10-31T04:44:49;8.80;99.90
11091;DHT22;5599;52.210;21.046;2022-10-31T04:47:18;8.70;99.90
11091;DHT22;5599;52.210;21.046;2022-10-31T04:49:47;8.60;99.90
11091;DHT22;5599;52.210;21.046;2022-10-31T04:52:17;8.60;99.90
11091;DHT22;5599;52.210;21.046;2022-10-31T04:54:47;8.60;99.90
11091;DHT22;5599;52.210;21.046;2022-10-31T04:57:41;8.50;99.90
11091;DHT22;5599;52.210;21.046;2022-10-31T05:00:12;8.30;99.90
11091;DHT22;5599;52.210;21.046;2022-10-31T05:02:43;8.30;99.90
11091;DHT22;5599;52.210;21.046;2022-10-31T05:05:13;8.20;99.90
11091;DHT22;5599;52.210;21.046;2022-10-31T05:07:44;8.20;99.90
11091;DHT22;5599;52.210;21.046;2022-10-31T05:10:17;8.30;99.90
11091;DHT22;5599;52.210;21.046;2022-10-31T05:12:50;8.30;99.90
11091;DHT22;5599;52.210;21.046;2022-10-31T05:15:40;8.30;99.90
11091;DHT22;5599;52.210;21.046;2022-10-31T05:18:27;8.40;99.90
11091;DHT22;5599;52.210;21.046;2022-10-31T05:21:15;8.30;99.90
11091;DHT22;5599;52.210;21.046;2022-10-31T05:23:49;8.20;99.90
11091;DHT22;5599;52.210;21.046;2022-10-31T05:26:20;8.20;99.90
11091;DHT22;5599;52.210;21.046;2022-10-31T05:28:49;8.10;99.90
11091;DHT22;5599;52.210;21.046;2022-10-31T05:31:18;8.10;99.90
11091;DHT22;5599;52.210;21.046;2022-10-31T05:33:48;8.10;99.90
11091;DHT22;5599;52.210;21.046;2022-10-31T05:36:36;8.10;99.90
11091;DHT22;5599;52.210;21.046;2022-10-31T05:39:16;8.10;99.90
11091;DHT22;5599;52.210;21.046;2022-10-31T05:41:49;8.10;99.90
11091;DHT22;5599;52.210;21.046;2022-10-31T05:44:21;8.00;99.90
11091;DHT22;5599;52.210;21.046;2022-10-31T05:47:03;7.90;99.90
11091;DHT22;5599;52.210;21.046;2022-10-31T05:49:59;7.80;99.90
11091;DHT22;5599;52.210;21.046;2022-10-31T05:52:54;7.60;99.90
11091;DHT22;5599;52.210;21.046;2022-10-31T05:55:34;7.50;99.90
11091;DHT22;5599;52.210;21.046;2022-10-31T05:58:34;7.40;99.90
11091;DHT22;5599;52.210;21.046;2022-10-31T06:01:05;7.20;99.90
11091;DHT22;5599;52.210;21.046;2022-10-31T06:03:35;7.20;99.90
11091;DHT22;5599;52.210;21.046;2022-10-31T06:06:08;7.20;99.90
11091;DHT22;5599;52.210;21.046;2022-10-31T06:08:40;7.20;99.90
11091;DHT22;5599;52.210;21.046;2022-10-31T06:11:15;7.30;99.90
11091;DHT22;5599;52.210;21.046;2022-10-31T06:14:04;7.40;99.90
11091;DHT22;5599;52.210;21.046;2022-10-31T06:16:56;7.50;99.90
11091;DHT22;5599;52.210;21.046;2022-10-31T06:19:44;7.60;99.90
11091;DHT22;5599;52.210;21.046;2022-10-31T06:22:19;7.80;99.90
11091;DHT22;5599;52.210;21.046;2022-10-31T06:24:48;8.00;99.90
11091;DHT22;5599;52.210;21.046;2022-10-31T06:27:22;8.20;99.90
11091;DHT22;5599;52.210;21.046;2022-10-31T06:29:54;8.30;99.90
11091;DHT22;5599;52.210;21.046;2022-10-31T06:32:31;8.40;99.90
11091;DHT22;5599;52.210;21.046;2022-10-31T06:35:00;8.50;99.90
11091;DHT22;5599;52.210;21.046;2022-10-31T06:37:32;8.50;99.90
11091;DHT22;5599;52.210;21.046;2022-10-31T06:40:12;8.60;99.90
11091;DHT22;5599;52.210;21.046;2022-10-31T06:43:01;8.70;99.90
11091;DHT22;5599;52.210;21.046;2022-10-31T06:45:33;8.80;99.90
11091;DHT22;5599;52.210;21.046;2022-10-31T06:48:21;8.90;99.90
11091;DHT22;5599;52.210;21.046;2022-10-31T06:51:09;9.00;99.90
11091;DHT22;5599;52.210;21.046;2022-10-31T06:53:39;9.20;99.90
11091;DHT22;5599;52.210;21.046;2022-10-31T06:56:11;9.30;99.90
11091;DHT22;5599;52.210;21.046;2022-10-31T06:58:45;9.50;99.90
11091;DHT22;5599;52.210;21.046;2022-10-31T07:01:18;9.60;99.90
11091;DHT22;5599;52.210;21.046;2022-10-31T07:03:48;9.70;99.90
11091;DHT22;5599;52.210;21.046;2022-10-31T07:06:18;9.90;99.90
11091;DHT22;5599;52.210;21.046;2022-10-31T07:08:48;9.80;99.90
11091;DHT22;5599;52.210;21.046;2022-10-31T07:11:17;9.80;99.90
11091;DHT22;5599;52.210;21.046;2022-10-31T07:13:47;9.60;1.00
11091;DHT22;5599;52.210;21.046;2022-10-31T07:16:18;9.70;1.00
11091;DHT22;5599;52.210;21.046;2022-10-31T07:18:47;9.70;99.90
11091;DHT22;5599;52.210;21.046;2022-10-31T07:21:16;9.70;99.90
11091;DHT22;5599;52.210;21.046;2022-10-31T07:23:47;9.70;99.90
11091;DHT22;5599;52.210;21.046;2022-10-31T07:26:36;9.60;99.90
11091;DHT22;5599;52.210;21.046;2022-10-31T07:29:05;9.80;99.90
11091;DHT22;5599;52.210;21.046;2022-10-31T07:31:36;10.00;99.90
11091;DHT22;5599;52.210;21.046;2022-10-31T07:34:13;10.20;99.90
11091;DHT22;5599;52.210;21.046;2022-10-31T07:37:02;10.30;99.90
11091;DHT22;5599;52.210;21.046;2022-10-31T07:39:31;10.40;99.90
11091;DHT22;5599;52.210;21.046;2022-10-31T07:42:01;10.30;99.90
11091;DHT22;5599;52.210;21.046;2022-10-31T07:44:31;10.20;99.90
11091;DHT22;5599;52.210;21.046;2022-10-31T07:47:21;10.20;99.90
11091;DHT22;5599;52.210;21.046;2022-10-31T07:50:10;10.20;99.90
11091;DHT22;5599;52.210;21.046;2022-10-31T07:52:59;10.20;99.90
11091;DHT22;5599;52.210;21.046;2022-10-31T07:55:38;10.10;99.90
11091;DHT22;5599;52.210;21.046;2022-10-31T07:58:09;9.90;99.90
11091;DHT22;5599;52.210;21.046;2022-10-31T08:00:41;10.00;99.90
11091;DHT22;5599;52.210;21.046;2022-10-31T08:03:17;10.10;99.90
11091;DHT22;5599;52.210;21.046;2022-10-31T08:05:58;10.30;99.90
11091;DHT22;5599;52.210;21.046;2022-10-31T08:08:51;10.50;99.90
11091;DHT22;5599;52.210;21.046;2022-10-31T08:11:20;10.70;99.90
11091;DHT22;5599;52.210;21.046;2022-10-31T08:13:49;10.80;99.90
11091;DHT22;5599;52.210;21.046;2022-10-31T08:16:19;11.00;99.90
11091;DHT22;5599;52.210;21.046;2022-10-31T08:18:57;11.10;99.90
11091;DHT22;5599;52.210;21.046;2022-10-31T08:21:28;11.10;99.90
11091;DHT22;5599;52.210;21.046;2022-10-31T08:23:59;11.10;99.90
11091;DHT22;5599;52.210;21.046;2022-10-31T08:26:29;11.20;99.90
11091;DHT22;5599;52.210;21.046;2022-10-31T08:28:58;11.30;99.90
11091;DHT22;5599;52.210;21.046;2022-10-31T08:31:32;11.40;99.90
11091;DHT22;5599;52.210;21.046;2022-10-31T08:34:48;11.50;57.90
11091;DHT22;5599;52.210;21.046;2022-10-31T08:37:37;11.60;97.50
11091;DHT22;5599;52.210;21.046;2022-10-31T08:40:08;11.60;54.80
11091;DHT22;5599;52.210;21.046;2022-10-31T08:42:40;11.50;1.00
11091;DHT22;5599;52.210;21.046;2022-10-31T08:45:10;11.60;1.00
11091;DHT22;5599;52.210;21.046;2022-10-31T08:47:39;11.70;14.90
11091;DHT22;5599;52.210;21.046;2022-10-31T08:50:10;11.90;1.00
11091;DHT22;5599;52.210;21.046;2022-10-31T08:52:39;12.00;1.00
11091;DHT22;5599;52.210;21.046;2022-10-31T08:55:28;12.20;99.90
11091;DHT22;5599;52.210;21.046;2022-10-31T08:58:10;12.40;1.00
11091;DHT22;5599;52.210;21.046;2022-10-31T09:00:47;12.70;1.00
11091;DHT22;5599;52.210;21.046;2022-10-31T09:03:22;12.80;1.00
11091;DHT22;5599;52.210;21.046;2022-10-31T09:05:57;13.00;1.00
11091;DHT22;5599;52.210;21.046;2022-10-31T09:08:30;13.00;1.00
11091;DHT22;5599;52.210;21.046;2022-10-31T09:11:01;13.00;1.00
11091;DHT22;5599;52.210;21.046;2022-10-31T09:14:06;13.10;1.00
11091;DHT22;5599;52.210;21.046;2022-10-31T09:16:38;13.10;99.90
11091;DHT22;5599;52.210;21.046;2022-10-31T09:19:14;13.30;99.90
11091;DHT22;5599;52.210;21.046;2022-10-31T09:21:47;13.30;15.80
11091;DHT22;5599;52.210;21.046;2022-10-31T09:24:17;13.20;1.00
11091;DHT22;5599;52.210;21.046;2022-10-31T09:26:46;13.20;1.00
11091;DHT22;5599;52.210;21.046;2022-10-31T09:29:28;13.20;1.00
11091;DHT22;5599;52.210;21.046;2022-10-31T09:31:59;13.30;1.00
11091;DHT22;5599;52.210;21.046;2022-10-31T09:34:30;13.60;1.00
11091;DHT22;5599;52.210;21.046;2022-10-31T09:37:10;13.70;1.00
11091;DHT22;5599;52.210;21.046;2022-10-31T09:39:40;13.90;1.00
11091;DHT22;5599;52.210;21.046;2022-10-31T09:45:22;14.20;1.00
11091;DHT22;5599;52.210;21.046;2022-10-31T09:48:12;14.40;1.00
11091;DHT22;5599;52.210;21.046;2022-10-31T09:51:13;14.40;1.00
11091;DHT22;5599;52.210;21.046;2022-10-31T09:53:58;14.50;1.00
11091;DHT22;5599;52.210;21.046;2022-10-31T09:56:30;14.60;1.00
11091;DHT22;5599;52.210;21.046;2022-10-31T09:59:02;14.80;99.90
11091;DHT22;5599;52.210;21.046;2022-10-31T10:01:47;15.10;99.90
11091;DHT22;5599;52.210;21.046;2022-10-31T10:04:31;15.30;19.00
11091;DHT22;5599;52.210;21.046;2022-10-31T10:07:27;15.30;1.00
11091;DHT22;5599;52.210;21.046;2022-10-31T10:10:25;15.30;99.90
11091;DHT22;5599;52.210;21.046;2022-10-31T10:13:35;15.50;99.90
11091;DHT22;5599;52.210;21.046;2022-10-31T10:16:15;15.60;95.70
11091;DHT22;5599;52.210;21.046;2022-10-31T10:18:59;15.60;99.90
11091;DHT22;5599;52.210;21.046;2022-10-31T10:21:39;15.20;9.90
11091;DHT22;5599;52.210;21.046;2022-10-31T10:24:22;14.90;1.00
11091;DHT22;5599;52.210;21.046;2022-10-31T10:27:03;14.90;1.00
11091;DHT22;5599;52.210;21.046;2022-10-31T10:29:41;14.80;1.00
11091;DHT22;5599;52.210;21.046;2022-10-31T10:32:17;14.70;99.90
11091;DHT22;5599;52.210;21.046;2022-10-31T10:34:51;14.70;99.90
11091;DHT22;5599;52.210;21.046;2022-10-31T10:37:27;15.00;99.90
11091;DHT22;5599;52.210;21.046;2022-10-31T10:40:07;14.90;1.00
11091;DHT22;5599;52.210;21.046;2022-10-31T10:42:42;15.00;1.00
11091;DHT22;5599;52.210;21.046;2022-10-31T10:45:31;15.00;1.00
11091;DHT22;5599;52.210;21.046;2022-10-31T10:48:27;15.10;1.00
11091;DHT22;5599;52.210;21.046;2022-10-31T10:51:01;15.40;1.00
11091;DHT22;5599;52.210;21.046;2022-10-31T10:57:15;16.00;1.00
11091;DHT22;5599;52.210;21.046;2022-10-31T10:59:52;16.20;1.00
11091;DHT22;5599;52.210;21.046;2022-10-31T11:02:36;16.20;1.00
11091;DHT22;5599;52.210;21.046;2022-10-31T11:05:37;16.40;1.00
11091;DHT22;5599;52.210;21.046;2022-10-31T11:08:27;16.70;1.00
11091;DHT22;5599;52.210;21.046;2022-10-31T11:11:24;16.90;1.00
11091;DHT22;5599;52.210;21.046;2022-10-31T11:14:43;16.80;1.00
11091;DHT22;5599;52.210;21.046;2022-10-31T11:21:17;16.90;1.00
11091;DHT22;5599;52.210;21.046;2022-10-31T11:24:15;17.00;99.90
11091;DHT22;5599;52.210;21.046;2022-10-31T11:27:13;17.00;99.90
11091;DHT22;5599;52.210;21.046;2022-10-31T11:30:09;16.90;1.00
11091;DHT22;5599;52.210;21.046;2022-10-31T11:32:43;16.90;1.00
11091;DHT22;5599;52.210;21.046;2022-10-31T11:35:43;17.00;1.00
11091;DHT22;5599;52.210;21.046;2022-10-31T11:38:33;16.80;1.00
11091;DHT22;5599;52.210;21.046;2022-10-31T11:41:13;17.00;1.00
11091;DHT22;5599;52.210;21.046;2022-10-31T11:44:29;16.90;1.00
11091;DHT22;5599;52.210;21.046;2022-10-31T11:47:02;16.60;99.90
11091;DHT22;5599;52.210;21.046;2022-10-31T11:49:35;16.90;1.00
11091;DHT22;5599;52.210;21.046;2022-10-31T11:52:12;17.10;1.00
11091;DHT22;5599;52.210;21.046;2022-10-31T11:54:46;17.30;1.00
11091;DHT22;5599;52.210;21.046;2022-10-31T11:57:23;17.30;8.10
11091;DHT22;5599;52.210;21.046;2022-10-31T11:59:56;17.40;1.00
11091;DHT22;5599;52.210;21.046;2022-10-31T12:02:26;17.50;1.00
11091;DHT22;5599;52.210;21.046;2022-10-31T12:05:01;17.40;1.00
11091;DHT22;5599;52.210;21.046;2022-10-31T12:07:32;17.10;46.10
11091;DHT22;5599;52.210;21.046;2022-10-31T12:10:09;17.40;50.40
11091;DHT22;5599;52.210;21.046;2022-10-31T12:12:52;17.50;99.90
11091;DHT22;5599;52.210;21.046;2022-10-31T12:15:33;17.50;99.90
11091;DHT22;5599;52.210;21.046;2022-10-31T12:18:23;17.60;1.00
11091;DHT22;5599;52.210;21.046;2022-10-31T12:21:06;17.60;1.00
11091;DHT22;5599;52.210;21.046;2022-10-31T12:23:48;17.30;99.90
11091;DHT22;5599;52.210;21.046;2022-10-31T12:26:25;17.50;99.90
11091;DHT22;5599;52.210;21.046;2022-10-31T12:29:07;17.70;2.60
11091;DHT22;5599;52.210;21.046;2022-10-31T12:31:55;17.90;1.00
11091;DHT22;5599;52.210;21.046;2022-10-31T12:34:45;17.70;1.00
11091;DHT22;5599;52.210;21.046;2022-10-31T12:37:27;17.80;1.00
11091;DHT22;5599;52.210;21.046;2022-10-31T12:40:11;17.80;99.90
11091;DHT22;5599;52.210;21.046;2022-10-31T12:42:55;17.70;99.90
11091;DHT22;5599;52.210;21.046;2022-10-31T12:45:44;17.70;1.00
11091;DHT22;5599;52.210;21.046;2022-10-31T12:48:45;17.80;1.00
11091;DHT22;5599;52.210;21.046;2022-10-31T12:51:29;18.10;1.00
11091;DHT22;5599;52.210;21.046;2022-10-31T12:54:24;18.10;99.90
11091;DHT22;5599;52.210;21.046;2022-10-31T12:57:04;18.10;99.90
11091;DHT22;5599;52.210;21.046;2022-10-31T12:59:38;18.20;44.60
11091;DHT22;5599;52.210;21.046;2022-10-31T13:02:24;18.20;99.90
11091;DHT22;5599;52.210;21.046;2022-10-31T13:05:01;18.30;1.00
11091;DHT22;5599;52.210;21.046;2022-10-31T13:07:36;18.00;1.00
11091;DHT22;5599;52.210;21.046;2022-10-31T13:10:16;18.00;99.90
11091;DHT22;5599;52.210;21.046;2022-10-31T13:12:50;18.10;1.00
11091;DHT22;5599;52.210;21.046;2022-10-31T13:15:22;18.30;99.90
11091;DHT22;5599;52.210;21.046;2022-10-31T13:18:04;18.30;1.00
11091;DHT22;5599;52.210;21.046;2022-10-31T13:20:40;18.30;1.00
11091;DHT22;5599;52.210;21.046;2022-10-31T13:23:16;18.20;1.00
11091;DHT22;5599;52.210;21.046;2022-10-31T13:26:11;18.30;60.60
11091;DHT22;5599;52.210;21.046;2022-10-31T13:28:44;18.40;1.00
11091;DHT22;5599;52.210;21.046;2022-10-31T13:31:16;18.50;99.90
11091;DHT22;5599;52.210;21.046;2022-10-31T13:33:49;18.50;99.90
11091;DHT22;5599;52.210;21.046;2022-10-31T13:36:30;18.40;1.00
11091;DHT22;5599;52.210;21.046;2022-10-31T13:39:14;18.40;99.90
11091;DHT22;5599;52.210;21.046;2022-10-31T13:41:49;18.20;21.80
11091;DHT22;5599;52.210;21.046;2022-10-31T13:44:22;18.20;99.90
11091;DHT22;5599;52.210;21.046;2022-10-31T13:46:55;18.20;1.00
11091;DHT22;5599;52.210;21.046;2022-10-31T13:49:36;18.30;1.00
11091;DHT22;5599;52.210;21.046;2022-10-31T13:52:26;18.30;99.90
11091;DHT22;5599;52.210;21.046;2022-10-31T13:54:57;18.20;99.90
11091;DHT22;5599;52.210;21.046;2022-10-31T13:57:32;18.10;87.10
11091;DHT22;5599;52.210;21.046;2022-10-31T14:00:05;18.10;99.90
11091;DHT22;5599;52.210;21.046;2022-10-31T14:02:46;18.10;1.00
11091;DHT22;5599;52.210;21.046;2022-10-31T14:05:23;18.10;99.90
11091;DHT22;5599;52.210;21.046;2022-10-31T14:07:56;18.00;99.90
11091;DHT22;5599;52.210;21.046;2022-10-31T14:10:36;17.90;99.90
11091;DHT22;5599;52.210;21.046;2022-10-31T14:13:13;17.80;1.00
11091;DHT22;5599;52.210;21.046;2022-10-31T14:15:53;17.70;1.00
11091;DHT22;5599;52.210;21.046;2022-10-31T14:18:28;17.60;99.90
11091;DHT22;5599;52.210;21.046;2022-10-31T14:20:59;17.50;99.90
11091;DHT22;5599;52.210;21.046;2022-10-31T14:23:35;17.40;99.90
11091;DHT22;5599;52.210;21.046;2022-10-31T14:26:32;17.40;1.00
11091;DHT22;5599;52.210;21.046;2022-10-31T14:31:53;17.10;11.50
11091;DHT22;5599;52.210;21.046;2022-10-31T14:34:27;16.80;1.00
11091;DHT22;5599;52.210;21.046;2022-10-31T14:37:31;16.70;21.60
11091;DHT22;5599;52.210;21.046;2022-10-31T14:40:18;16.60;1.00
11091;DHT22;5599;52.210;21.046;2022-10-31T14:43:07;16.40;99.90
11091;DHT22;5599;52.210;21.046;2022-10-31T14:45:47;16.30;99.90
11091;DHT22;5599;52.210;21.046;2022-10-31T14:48:31;16.00;99.90
11091;DHT22;5599;52.210;21.046;2022-10-31T14:51:08;15.80;1.00
11091;DHT22;5599;52.210;21.046;2022-10-31T14:53:55;15.60;99.90
11091;DHT22;5599;52.210;21.046;2022-10-31T14:56:30;15.40;1.00
11091;DHT22;5599;52.210;21.046;2022-10-31T14:59:04;15.30;1.00
11091;DHT22;5599;52.210;21.046;2022-10-31T15:01:55;15.10;1.00
11091;DHT22;5599;52.210;21.046;2022-10-31T15:04:27;15.10;99.90
11091;DHT22;5599;52.210;21.046;2022-10-31T15:07:10;14.90;99.90
11091;DHT22;5599;52.210;21.046;2022-10-31T15:09:41;14.80;99.90
11091;DHT22;5599;52.210;21.046;2022-10-31T15:12:26;14.70;99.90
11091;DHT22;5599;52.210;21.046;2022-10-31T15:15:11;14.60;99.90
11091;DHT22;5599;52.210;21.046;2022-10-31T15:17:45;14.40;34.20
11091;DHT22;5599;52.210;21.046;2022-10-31T15:20:21;14.30;58.90
11091;DHT22;5599;52.210;21.046;2022-10-31T15:22:54;14.20;1.00
11091;DHT22;5599;52.210;21.046;2022-10-31T15:25:30;14.00;5.40
11091;DHT22;5599;52.210;21.046;2022-10-31T15:28:13;14.10;77.40
11091;DHT22;5599;52.210;21.046;2022-10-31T15:30:51;14.10;52.70
11091;DHT22;5599;52.210;21.046;2022-10-31T15:33:26;13.90;66.20
11091;DHT22;5599;52.210;21.046;2022-10-31T15:36:16;13.90;26.40
11091;DHT22;5599;52.210;21.046;2022-10-31T15:38:58;13.90;1.00
11091;DHT22;5599;52.210;21.046;2022-10-31T15:41:31;13.90;1.00
11091;DHT22;5599;52.210;21.046;2022-10-31T15:44:07;13.80;99.90
11091;DHT22;5599;52.210;21.046;2022-10-31T15:46:51;13.80;1.00
11091;DHT22;5599;52.210;21.046;2022-10-31T15:49:28;13.80;99.90
11091;DHT22;5599;52.210;21.046;2022-10-31T15:52:04;13.80;99.90
11091;DHT22;5599;52.210;21.046;2022-10-31T15:54:35;13.70;20.20
11091;DHT22;5599;52.210;21.046;2022-10-31T15:57:10;13.60;1.00
11091;DHT22;5599;52.210;21.046;2022-10-31T15:59:45;13.60;93.00
11091;DHT22;5599;52.210;21.046;2022-10-31T16:02:19;13.60;1.00
11091;DHT22;5599;52.210;21.046;2022-10-31T16:04:52;13.60;98.00
11091;DHT22;5599;52.210;21.046;2022-10-31T16:07:23;13.60;1.00
11091;DHT22;5599;52.210;21.046;2022-10-31T16:09:55;13.70;99.90
11091;DHT22;5599;52.210;21.046;2022-10-31T16:12:30;13.80;1.00
11091;DHT22;5599;52.210;21.046;2022-10-31T16:15:04;13.70;51.70
11091;DHT22;5599;52.210;21.046;2022-10-31T16:17:41;13.70;90.50
11091;DHT22;5599;52.210;21.046;2022-10-31T16:20:19;13.70;1.00
11091;DHT22;5599;52.210;21.046;2022-10-31T16:22:51;13.60;99.90
11091;DHT22;5599;52.210;21.046;2022-10-31T16:25:25;13.60;27.20
11091;DHT22;5599;52.210;21.046;2022-10-31T16:27:59;13.50;15.40
11091;DHT22;5599;52.210;21.046;2022-10-31T16:30:36;13.50;17.40
11091;DHT22;5599;52.210;21.046;2022-10-31T16:33:26;13.50;99.90
11091;DHT22;5599;52.210;21.046;2022-10-31T16:35:57;13.50;99.90
11091;DHT22;5599;52.210;21.046;2022-10-31T16:38:42;13.40;99.90
11091;DHT22;5599;52.210;21.046;2022-10-31T16:41:12;13.40;99.90
11091;DHT22;5599;52.210;21.046;2022-10-31T16:43:41;13.30;99.90
11091;DHT22;5599;52.210;21.046;2022-10-31T16:46:22;13.40;99.90
11091;DHT22;5599;52.210;21.046;2022-10-31T16:48:54;13.50;99.90
11091;DHT22;5599;52.210;21.046;2022-10-31T16:51:23;13.50;99.90
11091;DHT22;5599;52.210;21.046;2022-10-31T16:53:54;13.50;99.90
11091;DHT22;5599;52.210;21.046;2022-10-31T16:56:27;13.60;99.90
11091;DHT22;5599;52.210;21.046;2022-10-31T16:58:57;13.60;99.90